createdAt,value
2022-09-11T00:01:29.086Z,76.52
2022-09-11T00:03:56.427Z,76.42
2022-09-11T00:06:29.836Z,76.16
2022-09-11T00:09:01.359Z,76.23
2022-09-11T00:11:41.802Z,76.16
2022-09-11T00:14:13.611Z,76.03
2022-09-11T00:16:44.959Z,75.71
2022-09-11T00:19:18.906Z,75.29
2022-09-11T00:21:46.089Z,75.39
2022-09-11T00:24:12.929Z,75.72
2022-09-11T00:26:41.020Z,75.96
2022-09-11T00:29:08.089Z,75.71
2022-09-11T00:31:35.066Z,76.16
2022-09-11T00:34:01.681Z,75.97
2022-09-11T00:36:35.618Z,75.96
2022-09-11T00:39:02.130Z,76.24
2022-09-11T00:41:34.220Z,76.15
2022-09-11T00:44:17.854Z,76.09
2022-09-11T00:46:44.199Z,76.24
2022-09-11T00:49:42.862Z,76.20
2022-09-11T00:52:33.099Z,75.90
2022-09-11T00:55:23.035Z,75.91
2022-09-11T00:57:58.390Z,76.23
2022-09-11T01:00:24.888Z,76.27
2022-09-11T01:02:54.520Z,76.12
2022-09-11T01:05:24.559Z,76.10
2022-09-11T01:07:54.394Z,76.47
2022-09-11T01:10:41.286Z,76.22
2022-09-11T01:13:28.202Z,75.85
2022-09-11T01:16:09.361Z,75.84
2022-09-11T01:18:46.411Z,76.29
2022-09-11T01:21:35.875Z,76.52
2022-09-11T01:24:26.353Z,76.50
2022-09-11T01:27:41.917Z,76.60
2022-09-11T01:30:22.915Z,76.31
2022-09-11T01:33:22.794Z,76.04
2022-09-11T01:35:57.338Z,76.04
2022-09-11T01:38:37.662Z,75.74
2022-09-11T01:41:20.541Z,75.81
2022-09-11T01:44:03.743Z,76.34
2022-09-11T01:46:38.811Z,76.35
2022-09-11T01:49:28.830Z,75.60
2022-09-11T01:52:05.914Z,75.69
2022-09-11T01:54:42.694Z,75.64
2022-09-11T01:57:18.482Z,75.42
2022-09-11T01:59:52.596Z,74.90
2022-09-11T02:02:28.858Z,74.97
2022-09-11T02:05:15.529Z,75.39
2022-09-11T02:07:52.726Z,75.34
2022-09-11T02:10:30.067Z,75.20
2022-09-11T02:13:13.966Z,75.05
2022-09-11T02:15:49.491Z,74.92
2022-09-11T02:18:40.360Z,74.91
2022-09-11T02:21:07.083Z,75.32
2022-09-11T02:23:33.634Z,75.28
2022-09-11T02:26:03.710Z,75.46
2022-09-11T02:28:30.217Z,75.24
2022-09-11T02:30:56.931Z,75.04
2022-09-11T02:33:37.561Z,74.81
2022-09-11T02:36:49.099Z,74.58
2022-09-11T02:39:40.319Z,74.73
2022-09-11T02:42:55.381Z,74.86
2022-09-11T02:46:17.481Z,75.57
2022-09-11T02:49:29.752Z,76.26
2022-09-11T02:52:18.313Z,76.43
2022-09-11T02:55:16.470Z,76.26
2022-09-11T02:57:58.418Z,75.73
2022-09-11T03:00:24.971Z,75.91
2022-09-11T03:02:53.499Z,75.55
2022-09-11T03:05:21.413Z,75.67
2022-09-11T03:07:47.866Z,75.36
2022-09-11T03:10:14.794Z,75.15
2022-09-11T03:12:41.763Z,75.05
2022-09-11T03:15:11.937Z,75.02
2022-09-11T03:17:38.748Z,75.05
2022-09-11T03:20:06.211Z,74.81
2022-09-11T03:22:32.679Z,74.59
2022-09-11T03:24:59.164Z,74.96
2022-09-11T03:27:25.945Z,75.03
2022-09-11T03:29:52.392Z,74.83
2022-09-11T03:32:18.955Z,75.15
2022-09-11T03:34:47.211Z,75.02
2022-09-11T03:37:13.702Z,74.67
2022-09-11T03:39:40.167Z,74.79
2022-09-11T03:42:06.723Z,74.80
2022-09-11T03:44:33.148Z,75.03
2022-09-11T03:47:00.196Z,75.69
2022-09-11T03:49:26.709Z,75.71
2022-09-11T03:51:53.134Z,75.40
2022-09-11T03:54:20.847Z,75.44
2022-09-11T03:56:47.279Z,75.15
2022-09-11T03:59:13.811Z,75.22
2022-09-11T04:01:40.318Z,75.30
2022-09-11T04:04:06.771Z,75.45
2022-09-11T04:06:33.308Z,75.57
2022-09-11T04:09:00.469Z,75.73
2022-09-11T04:11:27.073Z,75.41
2022-09-11T04:13:54.559Z,75.21
2022-09-11T04:16:21.051Z,75.44
2022-09-11T04:18:49.345Z,75.30
2022-09-11T04:21:18.520Z,75.37
2022-09-11T04:23:45.655Z,76.02
2022-09-11T04:26:15.661Z,76.10
2022-09-11T04:28:43.335Z,75.81
2022-09-11T04:31:10.031Z,76.03
2022-09-11T04:33:37.311Z,76.26
2022-09-11T04:36:07.198Z,76.28
2022-09-11T04:38:34.262Z,76.12
2022-09-11T04:41:03.138Z,76.16
2022-09-11T04:43:35.368Z,75.73
2022-09-11T04:46:12.088Z,75.85
2022-09-11T04:49:04.436Z,75.80
2022-09-11T04:51:39.229Z,75.98
2022-09-11T04:54:07.671Z,75.92
2022-09-11T04:56:40.082Z,75.82
2022-09-11T04:59:13.393Z,75.58
2022-09-11T05:01:40.292Z,76.00
2022-09-11T05:04:06.745Z,76.06
2022-09-11T05:06:33.180Z,76.12
2022-09-11T05:09:05.884Z,75.76
2022-09-11T05:11:34.136Z,75.89
2022-09-11T05:14:00.646Z,76.03
2022-09-11T05:16:29.849Z,75.52
2022-09-11T05:18:57.704Z,75.72
2022-09-11T05:21:26.597Z,76.03
2022-09-11T05:23:57.846Z,76.13
2022-09-11T05:26:31.465Z,76.05
2022-09-11T05:29:02.380Z,75.68
2022-09-11T05:31:29.641Z,75.86
2022-09-11T05:33:56.756Z,75.45
2022-09-11T05:36:24.051Z,75.44
2022-09-11T05:38:50.521Z,75.92
2022-09-11T05:41:17.357Z,75.35
2022-09-11T05:43:44.324Z,75.58
2022-09-11T05:46:15.049Z,75.74
2022-09-11T05:48:41.918Z,75.83
2022-09-11T05:51:13.593Z,75.82
2022-09-11T05:53:41.271Z,75.77
2022-09-11T05:56:14.118Z,75.85
2022-09-11T05:58:40.536Z,76.04
2022-09-11T06:01:10.471Z,76.21
2022-09-11T06:03:38.671Z,76.42
2022-09-11T06:06:08.820Z,76.67
2022-09-11T06:08:36.727Z,76.26
2022-09-11T06:11:08.719Z,76.18
2022-09-11T06:13:39.144Z,76.01
2022-09-11T06:16:19.053Z,76.11
2022-09-11T06:18:49.068Z,76.35
2022-09-11T06:21:19.963Z,76.11
2022-09-11T06:23:48.823Z,76.47
2022-09-11T06:26:18.488Z,76.64
2022-09-11T06:28:44.993Z,76.53
2022-09-11T06:31:16.309Z,75.95
2022-09-11T06:33:43.181Z,75.70
2022-09-11T06:36:13.378Z,75.68
2022-09-11T06:38:40.319Z,75.70
2022-09-11T06:41:12.513Z,75.61
2022-09-11T06:43:39.418Z,75.99
2022-09-11T06:46:07.916Z,76.22
2022-09-11T06:48:34.442Z,76.58
2022-09-11T06:51:04.981Z,76.76
2022-09-11T06:53:31.515Z,76.95
2022-09-11T06:56:06.770Z,76.86
2022-09-11T06:58:33.500Z,77.00
2022-09-11T07:01:05.490Z,76.95
2022-09-11T07:03:33.146Z,77.16
2022-09-11T07:06:00.823Z,76.77
2022-09-11T07:08:27.971Z,76.46
2022-09-11T07:10:55.234Z,76.65
2022-09-11T07:13:24.231Z,76.54
2022-09-11T07:16:03.864Z,76.78
2022-09-11T07:18:43.355Z,76.81
2022-09-11T07:21:13.751Z,76.95
2022-09-11T07:23:41.229Z,76.81
2022-09-11T07:26:11.787Z,76.53
2022-09-11T07:28:39.596Z,76.42
2022-09-11T07:31:20.699Z,75.83
2022-09-11T07:33:49.955Z,75.56
2022-09-11T07:36:23.011Z,75.21
2022-09-11T07:38:51.291Z,75.30
2022-09-11T07:41:22.013Z,75.24
2022-09-11T07:43:57.297Z,74.78
2022-09-11T07:46:25.119Z,74.61
2022-09-11T07:48:51.591Z,74.35
2022-09-11T07:51:19.218Z,74.14
2022-09-11T07:53:51.738Z,74.03
2022-09-11T07:56:24.834Z,73.43
2022-09-11T07:58:54.873Z,73.40
2022-09-11T08:01:27.737Z,73.41
2022-09-11T08:04:05.461Z,73.05
2022-09-11T08:06:35.606Z,73.77
2022-09-11T08:09:06.819Z,74.33
2022-09-11T08:11:39.349Z,74.61
2022-09-11T08:14:07.314Z,74.75
2022-09-11T08:16:35.972Z,74.66
2022-09-11T08:19:02.559Z,74.24
2022-09-11T08:21:29.198Z,74.05
2022-09-11T08:23:55.643Z,73.71
2022-09-11T08:26:26.056Z,73.24
2022-09-11T08:28:55.503Z,72.88
2022-09-11T08:31:28.824Z,72.85
2022-09-11T08:33:56.487Z,72.83
2022-09-11T08:36:24.291Z,72.89
2022-09-11T08:38:52.407Z,73.22
2022-09-11T08:41:42.968Z,72.86
2022-09-11T08:44:09.312Z,72.98
2022-09-11T08:46:42.945Z,72.46
2022-09-11T08:49:24.612Z,72.24
2022-09-11T08:51:56.203Z,72.51
2022-09-11T08:54:33.368Z,71.96
2022-09-11T08:57:17.693Z,71.50
2022-09-11T09:00:19.702Z,71.06
2022-09-11T09:03:02.878Z,71.18
2022-09-11T09:06:02.286Z,70.64
2022-09-11T09:08:59.078Z,70.00
2022-09-11T09:11:44.745Z,69.85
2022-09-11T09:14:47.718Z,69.04
2022-09-11T09:17:24.944Z,69.29
2022-09-11T09:20:31.799Z,69.16
2022-09-11T09:23:06.587Z,68.34
2022-09-11T09:25:42.029Z,67.94
2022-09-11T09:28:20.474Z,67.66
2022-09-11T09:30:54.433Z,67.30
2022-09-11T09:33:29.053Z,67.46
2022-09-11T09:35:55.611Z,67.45
2022-09-11T09:38:28.090Z,66.94
2022-09-11T09:41:32.538Z,66.74
2022-09-11T09:44:29.856Z,66.47
2022-09-11T09:46:56.617Z,66.33
2022-09-11T09:49:37.335Z,66.64
2022-09-11T09:52:26.428Z,62.68
2022-09-11T09:55:00.328Z,65.45
2022-09-11T09:57:41.258Z,65.80
2022-09-11T10:00:11.617Z,66.98
2022-09-11T10:02:52.690Z,66.36
2022-09-11T10:05:40.804Z,66.62
2022-09-11T10:08:29.113Z,67.26
2022-09-11T10:11:08.714Z,67.87
2022-09-11T10:13:41.693Z,67.39
2022-09-11T10:16:25.372Z,67.08
2022-09-11T10:18:54.221Z,66.68
2022-09-11T10:21:24.240Z,66.28
2022-09-11T10:23:57.033Z,66.50
2022-09-11T10:26:49.753Z,66.36
2022-09-11T10:29:26.806Z,66.29
2022-09-11T10:31:57.958Z,66.71
2022-09-11T10:34:27.899Z,66.88
2022-09-11T10:37:07.552Z,66.85
2022-09-11T10:39:37.358Z,66.50
2022-09-11T10:42:29.283Z,66.33
2022-09-11T10:45:16.912Z,66.83
2022-09-11T10:47:48.363Z,66.50
2022-09-11T10:50:17.836Z,65.32
2022-09-11T10:53:15.012Z,65.27
2022-09-11T10:55:52.095Z,65.99
2022-09-11T10:58:27.181Z,65.89
2022-09-11T11:00:53.887Z,65.43
2022-09-11T11:03:26.226Z,64.28
2022-09-11T11:06:25.721Z,64.11
2022-09-11T11:09:36.745Z,63.69
2022-09-11T11:12:10.764Z,63.44
2022-09-11T11:15:21.721Z,62.99
2022-09-11T11:18:38.122Z,62.34
2022-09-11T11:21:25.618Z,63.31
2022-09-11T11:24:33.655Z,63.95
2022-09-11T11:27:56.534Z,63.93
2022-09-11T11:31:15.703Z,64.83
2022-09-11T11:34:22.085Z,64.60
2022-09-11T11:37:14.662Z,64.63
2022-09-11T11:40:10.795Z,63.40
2022-09-11T11:43:03.409Z,64.06
2022-09-11T11:45:43.272Z,64.24
2022-09-11T11:48:28.906Z,63.27
2022-09-11T11:51:06.164Z,62.32
2022-09-11T11:53:48.243Z,62.03
2022-09-11T11:56:45.964Z,62.69
2022-09-11T11:59:55.896Z,62.06
2022-09-11T12:02:58.284Z,62.51
2022-09-11T12:05:31.497Z,63.01
2022-09-11T12:07:58.647Z,63.45
2022-09-11T12:10:34.530Z,62.36
2022-09-11T12:13:07.334Z,61.90
2022-09-11T12:15:36.634Z,62.25
2022-09-11T12:18:11.919Z,62.23
2022-09-11T12:20:44.910Z,62.42
2022-09-11T12:23:30.098Z,61.84
2022-09-11T12:26:20.631Z,62.69
2022-09-11T12:28:47.261Z,62.02
2022-09-11T12:31:17.036Z,61.56
2022-09-11T12:33:43.567Z,61.54
2022-09-11T12:36:16.809Z,61.21
2022-09-11T12:38:53.855Z,60.48
2022-09-11T12:41:35.628Z,60.42
2022-09-11T12:44:05.074Z,60.76
2022-09-11T12:46:31.419Z,59.07
2022-09-11T12:49:23.781Z,59.54
2022-09-11T12:51:55.203Z,59.96
2022-09-11T12:54:38.984Z,59.09
2022-09-11T12:57:15.855Z,58.71
2022-09-11T12:59:51.092Z,58.80
2022-09-11T13:02:39.390Z,58.75
2022-09-11T13:05:38.080Z,58.68
2022-09-11T13:08:22.183Z,58.97
2022-09-11T13:10:48.990Z,58.52
2022-09-11T13:13:37.417Z,57.83
2022-09-11T13:16:25.956Z,56.00
2022-09-11T13:19:05.766Z,57.46
2022-09-11T13:21:39.039Z,57.94
2022-09-11T13:24:21.209Z,57.87
2022-09-11T13:26:55.029Z,57.96
2022-09-11T13:29:26.659Z,56.73
2022-09-11T13:31:55.685Z,56.91
2022-09-11T13:34:27.271Z,57.54
2022-09-11T13:36:57.052Z,58.01
2022-09-11T13:39:27.121Z,57.37
2022-09-11T13:42:04.929Z,56.39
2022-09-11T13:44:47.052Z,56.94
2022-09-11T13:47:23.809Z,57.03
2022-09-11T13:50:02.316Z,57.98
2022-09-11T13:52:33.878Z,57.21
2022-09-11T13:55:28.545Z,56.81
2022-09-11T14:00:45.496Z,55.79
2022-09-11T14:03:27.992Z,54.57
2022-09-11T14:05:59.773Z,55.23
2022-09-11T14:08:35.104Z,54.85
2022-09-11T14:11:11.654Z,54.20
2022-09-11T14:13:56.534Z,53.46
2022-09-11T14:16:36.307Z,53.69
2022-09-11T14:19:09.211Z,54.18
2022-09-11T14:21:40.020Z,53.80
2022-09-11T14:24:32.741Z,52.98
2022-09-11T14:27:02.211Z,53.55
2022-09-11T14:29:32.647Z,51.89
2022-09-11T14:32:31.143Z,51.31
2022-09-11T14:34:58.919Z,52.54
2022-09-11T14:37:29.601Z,51.25
2022-09-11T14:39:59.995Z,51.76
2022-09-11T14:42:31.555Z,52.05
2022-09-11T14:44:58.126Z,53.14
2022-09-11T14:47:28.635Z,52.49
2022-09-11T14:49:57.389Z,52.45
2022-09-11T14:52:29.534Z,51.41
2022-09-11T14:54:59.900Z,52.53
2022-09-11T14:57:34.084Z,51.97
2022-09-11T15:00:00.958Z,52.60
2022-09-11T15:02:29.553Z,53.15
2022-09-11T15:04:57.920Z,54.04
2022-09-11T15:07:25.628Z,54.24
2022-09-11T15:09:54.546Z,54.20
2022-09-11T15:12:22.288Z,54.66
2022-09-11T15:14:58.024Z,54.70
2022-09-11T15:17:30.404Z,54.55
2022-09-11T15:19:59.879Z,54.33
2022-09-11T15:22:26.632Z,53.80
2022-09-11T15:24:53.716Z,53.67
2022-09-11T15:27:20.234Z,54.04
2022-09-11T15:29:46.719Z,54.29
2022-09-11T15:32:14.289Z,53.82
2022-09-11T15:34:41.899Z,53.84
2022-09-11T15:37:08.391Z,53.90
2022-09-11T15:39:35.367Z,54.21
2022-09-11T15:42:01.928Z,53.79
2022-09-11T15:44:28.939Z,53.17
2022-09-11T15:46:58.670Z,53.52
2022-09-11T15:49:29.106Z,53.63
2022-09-11T15:51:56.422Z,53.58
2022-09-11T15:54:23.717Z,53.73
2022-09-11T15:56:52.114Z,53.70
2022-09-11T15:59:18.927Z,53.96
2022-09-11T16:01:45.688Z,53.99
2022-09-11T16:04:18.564Z,53.25
2022-09-11T16:06:48.308Z,53.76
2022-09-11T16:09:19.967Z,54.46
2022-09-11T16:11:47.847Z,54.52
2022-09-11T16:14:27.126Z,53.42
2022-09-11T16:16:55.934Z,53.58
2022-09-11T16:19:27.781Z,54.04
2022-09-11T16:21:57.004Z,54.70
2022-09-11T16:24:26.510Z,55.04
2022-09-11T16:26:55.801Z,55.44
2022-09-11T16:29:25.678Z,55.89
2022-09-11T16:31:52.463Z,56.00
2022-09-11T16:34:19.042Z,56.07
2022-09-11T16:36:46.260Z,56.22
2022-09-11T16:39:17.058Z,56.63
2022-09-11T16:41:43.649Z,57.02
2022-09-11T16:44:16.124Z,56.85
2022-09-11T16:46:45.579Z,57.02
2022-09-11T16:49:18.344Z,57.05
2022-09-11T16:51:47.179Z,57.52
2022-09-11T16:54:13.870Z,57.41
2022-09-11T16:56:45.230Z,57.74
2022-09-11T16:59:12.347Z,58.13
2022-09-11T17:01:39.040Z,58.46
2022-09-11T17:04:05.565Z,58.27
2022-09-11T17:06:32.251Z,58.38
2022-09-11T17:09:02.830Z,59.36
2022-09-11T17:11:32.062Z,60.27
2022-09-11T17:14:02.392Z,60.49
2022-09-11T17:16:32.889Z,60.88
2022-09-11T17:19:01.517Z,61.21
2022-09-11T17:21:35.553Z,61.32
2022-09-11T17:24:04.827Z,61.25
2022-09-11T17:26:31.874Z,61.06
2022-09-11T17:29:03.156Z,61.40
2022-09-11T17:31:30.129Z,62.21
2022-09-11T17:33:56.697Z,62.62
2022-09-11T17:36:23.913Z,63.54
2022-09-11T17:38:55.181Z,63.54
2022-09-11T17:41:21.679Z,63.63
2022-09-11T17:43:49.191Z,64.00
2022-09-11T17:46:20.509Z,64.58
2022-09-11T17:48:47.987Z,64.96
2022-09-11T17:51:24.864Z,65.16
2022-09-11T17:53:56.149Z,65.36
2022-09-11T17:56:27.168Z,65.47
2022-09-11T17:58:57.392Z,66.21
2022-09-11T18:01:30.363Z,66.61
2022-09-11T18:03:59.145Z,67.38
2022-09-11T18:06:36.874Z,67.14
2022-09-11T18:09:11.938Z,67.14
2022-09-11T18:11:45.068Z,67.94
2022-09-11T18:14:13.617Z,68.23
2022-09-11T18:16:43.531Z,68.66
2022-09-11T18:19:10.603Z,69.16
2022-09-11T18:21:38.444Z,69.08
2022-09-11T18:24:07.368Z,69.23
2022-09-11T18:26:39.454Z,69.14
2022-09-11T18:29:11.239Z,69.81
2022-09-11T18:31:42.525Z,70.06
2022-09-11T18:34:13.399Z,69.75
2022-09-11T18:36:40.042Z,69.67
2022-09-11T18:39:06.526Z,69.61
2022-09-11T18:41:37.282Z,70.03
2022-09-11T18:44:08.780Z,70.28
2022-09-11T18:46:37.275Z,70.51
2022-09-11T18:49:05.147Z,70.36
2022-09-11T18:51:32.524Z,70.57
2022-09-11T18:54:00.213Z,70.65
2022-09-11T18:56:29.499Z,70.67
2022-09-11T18:58:56.294Z,70.66
2022-09-11T19:01:27.404Z,70.54
2022-09-11T19:03:55.291Z,70.64
2022-09-11T19:06:28.221Z,70.86
2022-09-11T19:08:55.909Z,71.02
2022-09-11T19:11:26.706Z,71.51
2022-09-11T19:14:00.291Z,71.88
2022-09-11T19:16:26.834Z,72.05
2022-09-11T19:18:53.330Z,72.10
2022-09-11T19:21:23.309Z,71.85
2022-09-11T19:23:55.861Z,71.88
2022-09-11T19:26:26.885Z,71.54
2022-09-11T19:28:56.130Z,70.99
2022-09-11T19:31:27.481Z,71.20
2022-09-11T19:33:55.340Z,71.37
2022-09-11T19:36:25.313Z,71.61
2022-09-11T19:38:55.843Z,71.76
2022-09-11T19:41:25.741Z,72.08
2022-09-11T19:43:54.004Z,72.36
2022-09-11T19:46:27.223Z,72.67
2022-09-11T19:48:57.931Z,72.00
2022-09-11T19:51:28.542Z,71.58
2022-09-11T19:54:00.235Z,71.55
2022-09-11T19:56:29.203Z,71.87
2022-09-11T19:58:56.067Z,72.12
2022-09-11T20:01:25.421Z,72.02
2022-09-11T20:03:54.260Z,72.07
2022-09-11T20:06:26.163Z,72.05
2022-09-11T20:09:13.483Z,72.27
2022-09-11T20:11:41.530Z,72.61
2022-09-11T20:14:08.003Z,72.84
2022-09-11T20:16:34.632Z,72.92
2022-09-11T20:19:09.234Z,72.41
2022-09-11T20:21:36.121Z,72.23
2022-09-11T20:24:07.147Z,72.28
2022-09-11T20:26:34.923Z,72.53
2022-09-11T20:29:08.704Z,72.59
2022-09-11T20:31:47.426Z,72.16
2022-09-11T20:34:17.321Z,72.09
2022-09-11T20:36:43.858Z,72.33
2022-09-11T20:39:13.502Z,72.74
2022-09-11T20:41:40.269Z,72.67
2022-09-11T20:44:06.735Z,72.68
2022-09-11T20:46:33.335Z,73.04
2022-09-11T20:49:00.709Z,73.34
2022-09-11T20:51:27.642Z,73.44
2022-09-11T20:53:56.001Z,73.58
2022-09-11T20:56:23.709Z,73.56
2022-09-11T20:58:50.909Z,73.55
2022-09-11T21:01:22.734Z,73.34
2022-09-11T21:03:53.561Z,73.51
2022-09-11T21:06:26.027Z,73.91
2022-09-11T21:08:58.995Z,73.92
2022-09-11T21:11:27.506Z,74.40
2022-09-11T21:13:54.411Z,74.65
2022-09-11T21:16:21.666Z,74.77
2022-09-11T21:18:58.538Z,74.43
2022-09-11T21:21:27.015Z,74.61
2022-09-11T21:24:01.171Z,74.37
2022-09-11T21:26:29.699Z,74.64
2022-09-11T21:28:58.451Z,74.31
2022-09-11T21:31:26.305Z,74.66
2022-09-11T21:33:53.751Z,74.64
2022-09-11T21:36:20.608Z,74.25
2022-09-11T21:38:47.050Z,74.43
2022-09-11T21:41:14.311Z,73.93
2022-09-11T21:43:41.072Z,73.86
2022-09-11T21:46:09.102Z,74.03
2022-09-11T21:48:39.338Z,73.82
2022-09-11T21:51:09.913Z,74.06
2022-09-11T21:53:38.657Z,74.06
2022-09-11T21:56:05.816Z,73.99
2022-09-11T21:58:32.274Z,73.72
2022-09-11T22:01:05.757Z,74.18
2022-09-11T22:03:32.353Z,74.11
2022-09-11T22:05:58.779Z,74.03
2022-09-11T22:08:25.298Z,73.60
2022-09-11T22:10:51.935Z,73.03
2022-09-11T22:13:19.616Z,73.14
2022-09-11T22:15:49.986Z,73.47
2022-09-11T22:18:18.122Z,74.29
2022-09-11T22:20:45.972Z,74.37
2022-09-11T22:23:21.727Z,74.45
2022-09-11T22:25:56.559Z,74.66
2022-09-11T22:28:22.991Z,74.53
2022-09-11T22:30:49.411Z,74.40
2022-09-11T22:33:15.924Z,74.40
2022-09-11T22:35:44.066Z,74.23
2022-09-11T22:38:12.131Z,74.57
2022-09-11T22:40:38.831Z,74.03
2022-09-11T22:43:05.812Z,74.01
2022-09-11T22:45:32.273Z,73.63
2022-09-11T22:47:59.212Z,73.62
2022-09-11T22:50:26.151Z,74.00
2022-09-11T22:52:52.956Z,73.63
2022-09-11T22:55:19.606Z,73.84
2022-09-11T22:57:46.202Z,73.06
2022-09-11T23:00:14.842Z,72.96
2022-09-11T23:02:41.919Z,73.22
2022-09-11T23:05:27.583Z,73.69
2022-09-11T23:07:54.611Z,73.54
2022-09-11T23:10:23.354Z,73.10
2022-09-11T23:12:52.405Z,72.98
2022-09-11T23:15:20.111Z,73.66
2022-09-11T23:17:46.858Z,73.62
2022-09-11T23:20:13.917Z,73.42
2022-09-11T23:22:40.370Z,73.06
2022-09-11T23:25:07.715Z,73.36
2022-09-11T23:27:34.251Z,73.56
2022-09-11T23:30:00.717Z,73.92
2022-09-11T23:32:27.160Z,74.37
2022-09-11T23:34:53.603Z,74.10
2022-09-11T23:37:20.063Z,74.95
2022-09-11T23:39:46.736Z,74.30
2022-09-11T23:42:13.294Z,73.93
2022-09-11T23:44:39.739Z,73.63
2022-09-11T23:47:06.245Z,74.19
2022-09-11T23:49:36.193Z,73.85
2022-09-11T23:52:04.806Z,74.15
2022-09-11T23:54:31.335Z,73.46
2022-09-11T23:56:57.965Z,74.03
2022-09-11T23:59:24.451Z,73.78
